sensor_id;sensor_type;location;lat;lon;timestamp;temperature;humidity
16999;DHT22;10211;49.476;11.010;2023-06-22T00:00:45;18.70;99.90
16999;DHT22;10211;49.476;11.010;2023-06-22T00:03:12;18.70;99.90
16999;DHT22;10211;49.476;11.010;2023-06-22T00:05:39;18.70;99.90
16999;DHT22;10211;49.476;11.010;2023-06-22T00:08:05;18.70;99.90
16999;DHT22;10211;49.476;11.010;2023-06-22T00:10:32;18.70;99.90
16999;DHT22;10211;49.476;11.010;2023-06-22T00:13:00;18.60;99.90
16999;DHT22;10211;49.476;11.010;2023-06-22T00:15:27;18.60;99.90
16999;DHT22;10211;49.476;11.010;2023-06-22T00:17:54;18.60;99.90
16999;DHT22;10211;49.476;11.010;2023-06-22T00:20:22;18.60;99.90
16999;DHT22;10211;49.476;11.010;2023-06-22T00:22:53;18.50;99.90
16999;DHT22;10211;49.476;11.010;2023-06-22T00:25:20;18.50;99.90
16999;DHT22;10211;49.476;11.010;2023-06-22T00:27:46;18.40;99.90
16999;DHT22;10211;49.476;11.010;2023-06-22T00:30:15;18.40;99.90
16999;DHT22;10211;49.476;11.010;2023-06-22T00:32:42;18.40;99.90
16999;DHT22;10211;49.476;11.010;2023-06-22T00:35:09;18.40;99.90
16999;DHT22;10211;49.476;11.010;2023-06-22T00:37:36;18.40;99.90
16999;DHT22;10211;49.476;11.010;2023-06-22T00:40:04;18.30;99.90
16999;DHT22;10211;49.476;11.010;2023-06-22T00:42:31;18.30;99.90
16999;DHT22;10211;49.476;11.010;2023-06-22T00:44:58;18.30;99.90
16999;DHT22;10211;49.476;11.010;2023-06-22T00:47:26;18.30;99.90
16999;DHT22;10211;49.476;11.010;2023-06-22T00:49:53;18.30;99.90
16999;DHT22;10211;49.476;11.010;2023-06-22T00:52:22;18.20;99.90
16999;DHT22;10211;49.476;11.010;2023-06-22T00:54:52;18.20;99.90
16999;DHT22;10211;49.476;11.010;2023-06-22T00:57:20;18.20;99.90
16999;DHT22;10211;49.476;11.010;2023-06-22T00:59:48;18.20;99.90
16999;DHT22;10211;49.476;11.010;2023-06-22T01:02:15;18.20;99.90
16999;DHT22;10211;49.476;11.010;2023-06-22T01:04:43;18.20;99.90
16999;DHT22;10211;49.476;11.010;2023-06-22T01:07:14;18.20;99.90
16999;DHT22;10211;49.476;11.010;2023-06-22T01:09:49;18.20;99.90
16999;DHT22;10211;49.476;11.010;2023-06-22T01:12:18;18.20;99.90
16999;DHT22;10211;49.476;11.010;2023-06-22T01:14:53;18.20;99.90
16999;DHT22;10211;49.476;11.010;2023-06-22T01:17:23;18.20;99.90
16999;DHT22;10211;49.476;11.010;2023-06-22T01:19:54;18.10;99.90
16999;DHT22;10211;49.476;11.010;2023-06-22T01:22:23;18.10;99.90
16999;DHT22;10211;49.476;11.010;2023-06-22T01:24:57;18.10;99.90
16999;DHT22;10211;49.476;11.010;2023-06-22T01:27:36;18.20;99.90
16999;DHT22;10211;49.476;11.010;2023-06-22T01:30:09;18.20;99.90
16999;DHT22;10211;49.476;11.010;2023-06-22T01:32:38;18.10;99.90
16999;DHT22;10211;49.476;11.010;2023-06-22T01:35:07;18.20;99.90
16999;DHT22;10211;49.476;11.010;2023-06-22T01:37:36;18.00;99.90
16999;DHT22;10211;49.476;11.010;2023-06-22T01:40:04;18.00;99.90
16999;DHT22;10211;49.476;11.010;2023-06-22T01:42:31;17.90;99.90
16999;DHT22;10211;49.476;11.010;2023-06-22T01:44:59;17.90;99.90
16999;DHT22;10211;49.476;11.010;2023-06-22T01:47:27;17.90;99.90
16999;DHT22;10211;49.476;11.010;2023-06-22T01:49:54;17.80;99.90
16999;DHT22;10211;49.476;11.010;2023-06-22T01:52:21;17.80;99.90
16999;DHT22;10211;49.476;11.010;2023-06-22T01:54:48;17.80;99.90
16999;DHT22;10211;49.476;11.010;2023-06-22T01:57:15;17.70;99.90
16999;DHT22;10211;49.476;11.010;2023-06-22T01:59:48;17.70;99.90
16999;DHT22;10211;49.476;11.010;2023-06-22T02:02:19;17.70;99.90
16999;DHT22;10211;49.476;11.010;2023-06-22T02:04:57;17.70;99.90
16999;DHT22;10211;49.476;11.010;2023-06-22T02:07:29;17.60;99.90
16999;DHT22;10211;49.476;11.010;2023-06-22T02:09:59;17.60;99.90
16999;DHT22;10211;49.476;11.010;2023-06-22T02:12:28;17.60;99.90
16999;DHT22;10211;49.476;11.010;2023-06-22T02:14:56;17.60;99.90
16999;DHT22;10211;49.476;11.010;2023-06-22T02:17:24;17.60;99.90
16999;DHT22;10211;49.476;11.010;2023-06-22T02:19:53;17.50;99.90
16999;DHT22;10211;49.476;11.010;2023-06-22T02:22:19;17.60;99.90
16999;DHT22;10211;49.476;11.010;2023-06-22T02:24:46;17.60;99.90
16999;DHT22;10211;49.476;11.010;2023-06-22T02:27:13;17.50;99.90
16999;DHT22;10211;49.476;11.010;2023-06-22T02:29:39;17.50;99.90
16999;DHT22;10211;49.476;11.010;2023-06-22T02:32:07;17.50;99.90
16999;DHT22;10211;49.476;11.010;2023-06-22T02:34:33;17.50;99.90
16999;DHT22;10211;49.476;11.010;2023-06-22T02:37:03;17.50;99.90
16999;DHT22;10211;49.476;11.010;2023-06-22T02:39:30;17.50;99.90
16999;DHT22;10211;49.476;11.010;2023-06-22T02:41:57;17.50;99.90
16999;DHT22;10211;49.476;11.010;2023-06-22T02:44:24;17.50;99.90
16999;DHT22;10211;49.476;11.010;2023-06-22T02:46:50;17.60;99.90
16999;DHT22;10211;49.476;11.010;2023-06-22T02:49:17;17.60;99.90
16999;DHT22;10211;49.476;11.010;2023-06-22T02:51:46;17.60;99.90
16999;DHT22;10211;49.476;11.010;2023-06-22T02:54:14;17.60;99.90
16999;DHT22;10211;49.476;11.010;2023-06-22T02:56:41;17.70;99.90
16999;DHT22;10211;49.476;11.010;2023-06-22T02:59:09;17.70;99.90
16999;DHT22;10211;49.476;11.010;2023-06-22T03:01:36;17.70;99.90
16999;DHT22;10211;49.476;11.010;2023-06-22T03:04:05;17.80;99.90
16999;DHT22;10211;49.476;11.010;2023-06-22T03:06:32;17.80;99.90
16999;DHT22;10211;49.476;11.010;2023-06-22T03:09:00;17.80;99.90
16999;DHT22;10211;49.476;11.010;2023-06-22T03:11:30;17.80;99.90
16999;DHT22;10211;49.476;11.010;2023-06-22T03:13:56;17.80;99.90
16999;DHT22;10211;49.476;11.010;2023-06-22T03:16:23;17.80;99.90
16999;DHT22;10211;49.476;11.010;2023-06-22T03:18:50;17.70;99.90
16999;DHT22;10211;49.476;11.010;2023-06-22T03:21:16;17.70;99.90
16999;DHT22;10211;49.476;11.010;2023-06-22T03:23:43;17.70;99.90
16999;DHT22;10211;49.476;11.010;2023-06-22T03:26:10;17.70;99.90
16999;DHT22;10211;49.476;11.010;2023-06-22T03:28:38;17.80;99.90
16999;DHT22;10211;49.476;11.010;2023-06-22T03:31:05;17.70;99.90
16999;DHT22;10211;49.476;11.010;2023-06-22T03:33:32;17.70;99.90
16999;DHT22;10211;49.476;11.010;2023-06-22T03:35:59;17.80;99.90
16999;DHT22;10211;49.476;11.010;2023-06-22T03:38:26;17.90;99.90
16999;DHT22;10211;49.476;11.010;2023-06-22T03:40:53;17.70;99.90
16999;DHT22;10211;49.476;11.010;2023-06-22T03:43:19;17.70;99.90
16999;DHT22;10211;49.476;11.010;2023-06-22T03:45:47;17.70;99.90
16999;DHT22;10211;49.476;11.010;2023-06-22T03:48:14;17.70;99.90
16999;DHT22;10211;49.476;11.010;2023-06-22T03:50:40;17.70;99.90
16999;DHT22;10211;49.476;11.010;2023-06-22T03:53:09;17.80;99.90
16999;DHT22;10211;49.476;11.010;2023-06-22T03:55:36;17.80;99.90
16999;DHT22;10211;49.476;11.010;2023-06-22T03:58:02;17.80;99.90
16999;DHT22;10211;49.476;11.010;2023-06-22T04:00:31;17.80;99.90
16999;DHT22;10211;49.476;11.010;2023-06-22T04:02:59;17.80;99.90
16999;DHT22;10211;49.476;11.010;2023-06-22T04:05:26;17.80;99.90
16999;DHT22;10211;49.476;11.010;2023-06-22T04:07:52;17.90;99.90
16999;DHT22;10211;49.476;11.010;2023-06-22T04:10:19;17.80;99.90
16999;DHT22;10211;49.476;11.010;2023-06-22T04:12:46;17.90;99.90
16999;DHT22;10211;49.476;11.010;2023-06-22T04:15:13;17.90;99.90
16999;DHT22;10211;49.476;11.010;2023-06-22T04:17:40;18.00;99.90
16999;DHT22;10211;49.476;11.010;2023-06-22T04:20:09;18.00;99.90
16999;DHT22;10211;49.476;11.010;2023-06-22T04:22:35;18.00;99.90
16999;DHT22;10211;49.476;11.010;2023-06-22T04:25:02;18.10;99.90
16999;DHT22;10211;49.476;11.010;2023-06-22T04:27:29;18.10;99.90
16999;DHT22;10211;49.476;11.010;2023-06-22T04:29:56;18.20;99.90
16999;DHT22;10211;49.476;11.010;2023-06-22T04:32:25;18.20;99.90
16999;DHT22;10211;49.476;11.010;2023-06-22T04:34:53;18.30;99.90
16999;DHT22;10211;49.476;11.010;2023-06-22T04:37:21;18.40;99.90
16999;DHT22;10211;49.476;11.010;2023-06-22T04:39:48;18.40;99.90
16999;DHT22;10211;49.476;11.010;2023-06-22T04:42:15;18.50;99.90
16999;DHT22;10211;49.476;11.010;2023-06-22T04:44:42;18.50;99.90
16999;DHT22;10211;49.476;11.010;2023-06-22T04:47:08;18.60;99.90
16999;DHT22;10211;49.476;11.010;2023-06-22T04:49:36;18.60;99.90
16999;DHT22;10211;49.476;11.010;2023-06-22T04:52:05;18.60;99.90
16999;DHT22;10211;49.476;11.010;2023-06-22T04:54:34;18.70;99.90
16999;DHT22;10211;49.476;11.010;2023-06-22T04:57:02;18.70;99.90
16999;DHT22;10211;49.476;11.010;2023-06-22T04:59:31;18.80;99.90
16999;DHT22;10211;49.476;11.010;2023-06-22T05:01:58;18.90;99.90
16999;DHT22;10211;49.476;11.010;2023-06-22T05:04:26;19.00;99.90
16999;DHT22;10211;49.476;11.010;2023-06-22T05:06:54;19.20;99.90
16999;DHT22;10211;49.476;11.010;2023-06-22T05:09:21;19.40;99.90
16999;DHT22;10211;49.476;11.010;2023-06-22T05:11:49;19.50;99.90
16999;DHT22;10211;49.476;11.010;2023-06-22T05:14:16;19.60;99.90
16999;DHT22;10211;49.476;11.010;2023-06-22T05:16:43;19.80;99.90
16999;DHT22;10211;49.476;11.010;2023-06-22T05:19:10;19.90;99.90
16999;DHT22;10211;49.476;11.010;2023-06-22T05:21:37;20.10;99.90
16999;DHT22;10211;49.476;11.010;2023-06-22T05:24:05;20.30;99.90
16999;DHT22;10211;49.476;11.010;2023-06-22T05:26:33;20.50;99.90
16999;DHT22;10211;49.476;11.010;2023-06-22T05:29:02;20.70;99.90
16999;DHT22;10211;49.476;11.010;2023-06-22T05:31:29;20.90;99.90
16999;DHT22;10211;49.476;11.010;2023-06-22T05:33:56;21.10;99.90
16999;DHT22;10211;49.476;11.010;2023-06-22T05:36:23;21.50;99.90
16999;DHT22;10211;49.476;11.010;2023-06-22T05:38:51;22.00;99.90
16999;DHT22;10211;49.476;11.010;2023-06-22T05:41:18;23.20;99.90
16999;DHT22;10211;49.476;11.010;2023-06-22T05:43:45;24.60;99.90
16999;DHT22;10211;49.476;11.010;2023-06-22T05:46:13;25.90;99.90
16999;DHT22;10211;49.476;11.010;2023-06-22T05:48:40;26.50;99.90
16999;DHT22;10211;49.476;11.010;2023-06-22T05:51:06;27.10;99.90
16999;DHT22;10211;49.476;11.010;2023-06-22T05:53:33;27.70;99.90
16999;DHT22;10211;49.476;11.010;2023-06-22T05:56:00;27.60;99.90
16999;DHT22;10211;49.476;11.010;2023-06-22T05:58:26;27.10;99.90
16999;DHT22;10211;49.476;11.010;2023-06-22T06:00:53;26.70;99.90
16999;DHT22;10211;49.476;11.010;2023-06-22T06:03:21;26.30;99.90
16999;DHT22;10211;49.476;11.010;2023-06-22T06:05:48;25.80;99.90
16999;DHT22;10211;49.476;11.010;2023-06-22T06:08:15;25.50;99.90
16999;DHT22;10211;49.476;11.010;2023-06-22T06:10:41;25.20;99.90
16999;DHT22;10211;49.476;11.010;2023-06-22T06:13:08;25.20;99.90
16999;DHT22;10211;49.476;11.010;2023-06-22T06:15:35;25.60;99.90
16999;DHT22;10211;49.476;11.010;2023-06-22T06:18:01;26.70;99.90
16999;DHT22;10211;49.476;11.010;2023-06-22T06:20:32;28.30;99.90
16999;DHT22;10211;49.476;11.010;2023-06-22T06:22:58;29.70;99.90
16999;DHT22;10211;49.476;11.010;2023-06-22T06:25:25;30.60;97.00
16999;DHT22;10211;49.476;11.010;2023-06-22T06:27:52;30.70;95.00
16999;DHT22;10211;49.476;11.010;2023-06-22T06:30:20;30.40;94.90
16999;DHT22;10211;49.476;11.010;2023-06-22T06:32:47;29.90;95.60
16999;DHT22;10211;49.476;11.010;2023-06-22T06:35:15;29.30;96.60
16999;DHT22;10211;49.476;11.010;2023-06-22T06:37:44;28.70;97.50
16999;DHT22;10211;49.476;11.010;2023-06-22T06:40:12;28.10;98.30
16999;DHT22;10211;49.476;11.010;2023-06-22T06:42:40;27.60;99.70
16999;DHT22;10211;49.476;11.010;2023-06-22T06:45:10;27.10;99.90
16999;DHT22;10211;49.476;11.010;2023-06-22T06:47:36;26.80;99.90
16999;DHT22;10211;49.476;11.010;2023-06-22T06:50:04;26.70;99.90
16999;DHT22;10211;49.476;11.010;2023-06-22T06:52:31;26.60;99.90
16999;DHT22;10211;49.476;11.010;2023-06-22T06:54:59;26.50;99.90
16999;DHT22;10211;49.476;11.010;2023-06-22T06:57:26;26.40;99.90
16999;DHT22;10211;49.476;11.010;2023-06-22T06:59:54;26.40;99.90
16999;DHT22;10211;49.476;11.010;2023-06-22T07:02:22;26.20;99.90
16999;DHT22;10211;49.476;11.010;2023-06-22T07:04:48;26.20;99.90
16999;DHT22;10211;49.476;11.010;2023-06-22T07:07:16;26.10;99.90
16999;DHT22;10211;49.476;11.010;2023-06-22T07:09:42;26.10;99.90
16999;DHT22;10211;49.476;11.010;2023-06-22T07:12:10;26.10;99.90
16999;DHT22;10211;49.476;11.010;2023-06-22T07:14:37;26.10;99.90
16999;DHT22;10211;49.476;11.010;2023-06-22T07:17:04;26.10;99.90
16999;DHT22;10211;49.476;11.010;2023-06-22T07:19:32;26.10;99.90
16999;DHT22;10211;49.476;11.010;2023-06-22T07:21:59;26.20;99.90
16999;DHT22;10211;49.476;11.010;2023-06-22T07:24:26;26.40;99.90
16999;DHT22;10211;49.476;11.010;2023-06-22T07:26:52;26.60;99.90
16999;DHT22;10211;49.476;11.010;2023-06-22T07:29:20;26.80;99.90
16999;DHT22;10211;49.476;11.010;2023-06-22T07:31:48;26.80;99.90
16999;DHT22;10211;49.476;11.010;2023-06-22T07:34:16;26.80;99.90
16999;DHT22;10211;49.476;11.010;2023-06-22T07:36:43;26.90;99.90
16999;DHT22;10211;49.476;11.010;2023-06-22T07:39:10;26.90;99.90
16999;DHT22;10211;49.476;11.010;2023-06-22T07:41:39;27.00;99.90
16999;DHT22;10211;49.476;11.010;2023-06-22T07:44:05;27.00;99.90
16999;DHT22;10211;49.476;11.010;2023-06-22T07:46:34;27.00;99.90
16999;DHT22;10211;49.476;11.010;2023-06-22T07:49:01;27.10;99.90
16999;DHT22;10211;49.476;11.010;2023-06-22T07:51:27;27.10;99.90
16999;DHT22;10211;49.476;11.010;2023-06-22T07:53:54;27.10;99.90
16999;DHT22;10211;49.476;11.010;2023-06-22T07:56:21;27.20;99.90
16999;DHT22;10211;49.476;11.010;2023-06-22T07:58:48;27.30;99.90
16999;DHT22;10211;49.476;11.010;2023-06-22T08:01:15;27.30;99.90
16999;DHT22;10211;49.476;11.010;2023-06-22T08:03:43;27.40;99.90
16999;DHT22;10211;49.476;11.010;2023-06-22T08:06:10;27.50;99.90
16999;DHT22;10211;49.476;11.010;2023-06-22T08:08:37;27.60;99.90
16999;DHT22;10211;49.476;11.010;2023-06-22T08:11:04;27.70;99.90
16999;DHT22;10211;49.476;11.010;2023-06-22T08:13:31;27.90;99.90
16999;DHT22;10211;49.476;11.010;2023-06-22T08:15:58;28.00;99.90
16999;DHT22;10211;49.476;11.010;2023-06-22T08:18:24;28.10;99.90
16999;DHT22;10211;49.476;11.010;2023-06-22T08:20:52;28.20;99.10
16999;DHT22;10211;49.476;11.010;2023-06-22T08:23:19;28.40;98.80
16999;DHT22;10211;49.476;11.010;2023-06-22T08:25:46;28.60;98.30
16999;DHT22;10211;49.476;11.010;2023-06-22T08:28:13;28.80;97.50
16999;DHT22;10211;49.476;11.010;2023-06-22T08:30:40;28.90;96.70
16999;DHT22;10211;49.476;11.010;2023-06-22T08:33:07;29.00;97.00
16999;DHT22;10211;49.476;11.010;2023-06-22T08:35:33;29.10;96.70
16999;DHT22;10211;49.476;11.010;2023-06-22T08:38:01;29.30;95.70
16999;DHT22;10211;49.476;11.010;2023-06-22T08:40:28;29.50;95.40
16999;DHT22;10211;49.476;11.010;2023-06-22T08:42:55;29.70;94.50
16999;DHT22;10211;49.476;11.010;2023-06-22T08:45:22;29.70;92.30
16999;DHT22;10211;49.476;11.010;2023-06-22T08:47:48;29.80;92.40
16999;DHT22;10211;49.476;11.010;2023-06-22T08:50:15;29.80;91.10
16999;DHT22;10211;49.476;11.010;2023-06-22T08:52:42;29.80;91.30
16999;DHT22;10211;49.476;11.010;2023-06-22T08:55:10;29.80;91.30
16999;DHT22;10211;49.476;11.010;2023-06-22T08:57:37;29.90;90.30
16999;DHT22;10211;49.476;11.010;2023-06-22T09:00:06;30.00;90.50
16999;DHT22;10211;49.476;11.010;2023-06-22T09:02:40;30.10;89.30
16999;DHT22;10211;49.476;11.010;2023-06-22T09:05:07;30.20;90.40
16999;DHT22;10211;49.476;11.010;2023-06-22T09:07:34;30.40;90.40
16999;DHT22;10211;49.476;11.010;2023-06-22T09:10:01;30.60;89.10
16999;DHT22;10211;49.476;11.010;2023-06-22T09:12:31;30.80;86.80
16999;DHT22;10211;49.476;11.010;2023-06-22T09:14:58;31.00;86.80
16999;DHT22;10211;49.476;11.010;2023-06-22T09:17:26;31.20;87.00
16999;DHT22;10211;49.476;11.010;2023-06-22T09:19:53;31.50;84.10
16999;DHT22;10211;49.476;11.010;2023-06-22T09:22:20;31.70;82.90
16999;DHT22;10211;49.476;11.010;2023-06-22T09:24:47;31.80;82.30
16999;DHT22;10211;49.476;11.010;2023-06-22T09:27:14;32.20;82.70
16999;DHT22;10211;49.476;11.010;2023-06-22T09:29:41;32.50;81.50
16999;DHT22;10211;49.476;11.010;2023-06-22T09:32:08;32.80;80.60
16999;DHT22;10211;49.476;11.010;2023-06-22T09:34:35;33.10;79.90
16999;DHT22;10211;49.476;11.010;2023-06-22T09:37:02;33.30;78.10
16999;DHT22;10211;49.476;11.010;2023-06-22T09:39:28;33.50;76.60
16999;DHT22;10211;49.476;11.010;2023-06-22T09:41:57;33.70;76.30
16999;DHT22;10211;49.476;11.010;2023-06-22T09:44:24;33.80;76.00
16999;DHT22;10211;49.476;11.010;2023-06-22T09:46:52;34.10;73.30
16999;DHT22;10211;49.476;11.010;2023-06-22T09:49:19;34.30;72.10
16999;DHT22;10211;49.476;11.010;2023-06-22T09:51:45;34.50;71.20
16999;DHT22;10211;49.476;11.010;2023-06-22T09:54:12;35.00;69.80
16999;DHT22;10211;49.476;11.010;2023-06-22T09:56:39;35.80;68.40
16999;DHT22;10211;49.476;11.010;2023-06-22T09:59:05;37.20;66.80
16999;DHT22;10211;49.476;11.010;2023-06-22T10:01:32;39.00;62.10
16999;DHT22;10211;49.476;11.010;2023-06-22T10:04:01;41.30;59.10
16999;DHT22;10211;49.476;11.010;2023-06-22T10:06:28;43.90;53.50
16999;DHT22;10211;49.476;11.010;2023-06-22T10:08:54;46.20;50.00
16999;DHT22;10211;49.476;11.010;2023-06-22T10:11:21;47.40;46.50
16999;DHT22;10211;49.476;11.010;2023-06-22T10:13:52;48.20;45.60
16999;DHT22;10211;49.476;11.010;2023-06-22T10:16:19;49.40;43.60
16999;DHT22;10211;49.476;11.010;2023-06-22T10:18:45;50.40;42.20
16999;DHT22;10211;49.476;11.010;2023-06-22T10:21:14;51.20;41.30
16999;DHT22;10211;49.476;11.010;2023-06-22T10:23:41;52.10;40.70
16999;DHT22;10211;49.476;11.010;2023-06-22T10:26:08;52.40;38.90
16999;DHT22;10211;49.476;11.010;2023-06-22T10:28:34;52.90;39.30
16999;DHT22;10211;49.476;11.010;2023-06-22T10:31:01;53.80;38.10
16999;DHT22;10211;49.476;11.010;2023-06-22T10:33:28;54.30;37.80
16999;DHT22;10211;49.476;11.010;2023-06-22T10:35:55;54.00;36.30
16999;DHT22;10211;49.476;11.010;2023-06-22T10:38:23;54.30;35.90
16999;DHT22;10211;49.476;11.010;2023-06-22T10:40:49;54.40;36.50
16999;DHT22;10211;49.476;11.010;2023-06-22T10:43:16;54.70;36.20
16999;DHT22;10211;49.476;11.010;2023-06-22T10:45:43;54.60;35.70
16999;DHT22;10211;49.476;11.010;2023-06-22T10:48:09;54.80;35.50
16999;DHT22;10211;49.476;11.010;2023-06-22T10:50:36;55.10;35.90
16999;DHT22;10211;49.476;11.010;2023-06-22T10:53:03;55.10;34.70
16999;DHT22;10211;49.476;11.010;2023-06-22T10:55:31;54.70;35.00
16999;DHT22;10211;49.476;11.010;2023-06-22T10:57:57;54.70;35.00
16999;DHT22;10211;49.476;11.010;2023-06-22T11:00:24;54.60;35.00
16999;DHT22;10211;49.476;11.010;2023-06-22T11:02:51;54.40;35.00
16999;DHT22;10211;49.476;11.010;2023-06-22T11:05:18;54.30;34.60
16999;DHT22;10211;49.476;11.010;2023-06-22T11:07:44;54.60;34.80
16999;DHT22;10211;49.476;11.010;2023-06-22T11:10:12;54.80;34.60
16999;DHT22;10211;49.476;11.010;2023-06-22T11:12:40;55.10;34.90
16999;DHT22;10211;49.476;11.010;2023-06-22T11:15:08;55.00;34.60
16999;DHT22;10211;49.476;11.010;2023-06-22T11:17:35;54.10;34.60
16999;DHT22;10211;49.476;11.010;2023-06-22T11:20:02;53.10;35.80
16999;DHT22;10211;49.476;11.010;2023-06-22T11:22:36;52.10;36.20
16999;DHT22;10211;49.476;11.010;2023-06-22T11:25:03;51.60;36.00
16999;DHT22;10211;49.476;11.010;2023-06-22T11:27:30;51.30;36.80
16999;DHT22;10211;49.476;11.010;2023-06-22T11:29:58;50.80;36.80
16999;DHT22;10211;49.476;11.010;2023-06-22T11:32:25;50.30;36.90
16999;DHT22;10211;49.476;11.010;2023-06-22T11:34:51;50.30;37.20
16999;DHT22;10211;49.476;11.010;2023-06-22T11:37:18;50.00;37.70
16999;DHT22;10211;49.476;11.010;2023-06-22T11:39:45;49.90;37.80
16999;DHT22;10211;49.476;11.010;2023-06-22T11:42:11;49.70;38.40
16999;DHT22;10211;49.476;11.010;2023-06-22T11:44:38;49.50;38.40
16999;DHT22;10211;49.476;11.010;2023-06-22T11:47:06;49.20;38.00
16999;DHT22;10211;49.476;11.010;2023-06-22T11:49:33;49.20;38.80
16999;DHT22;10211;49.476;11.010;2023-06-22T11:52:00;49.10;38.60
16999;DHT22;10211;49.476;11.010;2023-06-22T11:54:26;49.10;38.30
16999;DHT22;10211;49.476;11.010;2023-06-22T11:56:53;48.80;39.10
16999;DHT22;10211;49.476;11.010;2023-06-22T11:59:19;48.70;39.20
16999;DHT22;10211;49.476;11.010;2023-06-22T12:01:47;48.60;39.10
16999;DHT22;10211;49.476;11.010;2023-06-22T12:04:17;48.40;39.20
16999;DHT22;10211;49.476;11.010;2023-06-22T12:06:44;48.50;39.30
16999;DHT22;10211;49.476;11.010;2023-06-22T12:09:10;48.40;38.70
16999;DHT22;10211;49.476;11.010;2023-06-22T12:11:39;47.90;39.50
16999;DHT22;10211;49.476;11.010;2023-06-22T12:14:05;47.40;39.80
16999;DHT22;10211;49.476;11.010;2023-06-22T12:16:32;47.10;40.30
16999;DHT22;10211;49.476;11.010;2023-06-22T12:18:59;47.00;40.30
16999;DHT22;10211;49.476;11.010;2023-06-22T12:21:27;47.00;40.30
16999;DHT22;10211;49.476;11.010;2023-06-22T12:23:54;46.20;40.60
16999;DHT22;10211;49.476;11.010;2023-06-22T12:26:21;44.90;41.70
16999;DHT22;10211;49.476;11.010;2023-06-22T12:28:48;43.60;43.30
16999;DHT22;10211;49.476;11.010;2023-06-22T12:31:15;43.00;44.70
16999;DHT22;10211;49.476;11.010;2023-06-22T12:33:41;43.20;44.30
16999;DHT22;10211;49.476;11.010;2023-06-22T12:36:08;43.10;43.90
16999;DHT22;10211;49.476;11.010;2023-06-22T12:38:36;43.10;44.10
16999;DHT22;10211;49.476;11.010;2023-06-22T12:41:03;42.40;44.90
16999;DHT22;10211;49.476;11.010;2023-06-22T12:43:29;42.10;45.90
16999;DHT22;10211;49.476;11.010;2023-06-22T12:45:56;42.30;45.90
16999;DHT22;10211;49.476;11.010;2023-06-22T12:48:24;42.30;45.70
16999;DHT22;10211;49.476;11.010;2023-06-22T12:50:51;42.60;45.60
16999;DHT22;10211;49.476;11.010;2023-06-22T12:53:17;42.70;45.20
16999;DHT22;10211;49.476;11.010;2023-06-22T12:55:46;42.70;45.00
16999;DHT22;10211;49.476;11.010;2023-06-22T12:58:12;42.30;45.30
16999;DHT22;10211;49.476;11.010;2023-06-22T13:00:39;41.90;47.00
16999;DHT22;10211;49.476;11.010;2023-06-22T13:03:06;41.10;46.90
16999;DHT22;10211;49.476;11.010;2023-06-22T13:05:32;40.50;47.40
16999;DHT22;10211;49.476;11.010;2023-06-22T13:08:00;40.00;48.60
16999;DHT22;10211;49.476;11.010;2023-06-22T13:10:27;39.60;49.50
16999;DHT22;10211;49.476;11.010;2023-06-22T13:12:55;39.10;50.10
16999;DHT22;10211;49.476;11.010;2023-06-22T13:15:26;38.80;50.70
16999;DHT22;10211;49.476;11.010;2023-06-22T13:17:53;38.60;51.40
16999;DHT22;10211;49.476;11.010;2023-06-22T13:20:19;38.60;50.60
16999;DHT22;10211;49.476;11.010;2023-06-22T13:22:46;38.50;50.40
16999;DHT22;10211;49.476;11.010;2023-06-22T13:25:13;38.40;50.60
16999;DHT22;10211;49.476;11.010;2023-06-22T13:27:44;38.20;49.70
16999;DHT22;10211;49.476;11.010;2023-06-22T13:30:13;38.10;50.40
16999;DHT22;10211;49.476;11.010;2023-06-22T13:32:39;37.90;49.90
16999;DHT22;10211;49.476;11.010;2023-06-22T13:35:07;37.80;49.90
16999;DHT22;10211;49.476;11.010;2023-06-22T13:37:34;37.70;50.20
16999;DHT22;10211;49.476;11.010;2023-06-22T13:40:01;37.80;50.30
16999;DHT22;10211;49.476;11.010;2023-06-22T13:42:30;37.80;51.70
16999;DHT22;10211;49.476;11.010;2023-06-22T13:44:57;37.80;51.40
16999;DHT22;10211;49.476;11.010;2023-06-22T13:47:25;37.80;50.80
16999;DHT22;10211;49.476;11.010;2023-06-22T13:49:52;37.60;51.50
16999;DHT22;10211;49.476;11.010;2023-06-22T13:52:18;37.40;52.90
16999;DHT22;10211;49.476;11.010;2023-06-22T13:54:45;37.40;52.90
16999;DHT22;10211;49.476;11.010;2023-06-22T13:57:12;37.50;53.40
16999;DHT22;10211;49.476;11.010;2023-06-22T13:59:38;37.70;53.60
16999;DHT22;10211;49.476;11.010;2023-06-22T14:02:06;37.70;53.20
16999;DHT22;10211;49.476;11.010;2023-06-22T14:04:34;37.70;52.50
16999;DHT22;10211;49.476;11.010;2023-06-22T14:07:00;37.80;53.70
16999;DHT22;10211;49.476;11.010;2023-06-22T14:09:27;37.80;52.60
16999;DHT22;10211;49.476;11.010;2023-06-22T14:11:54;37.90;52.80
16999;DHT22;10211;49.476;11.010;2023-06-22T14:14:21;38.10;51.70
16999;DHT22;10211;49.476;11.010;2023-06-22T14:16:48;38.10;50.60
16999;DHT22;10211;49.476;11.010;2023-06-22T14:19:17;37.90;50.40
16999;DHT22;10211;49.476;11.010;2023-06-22T14:21:45;37.70;50.80
16999;DHT22;10211;49.476;11.010;2023-06-22T14:24:11;37.70;52.30
16999;DHT22;10211;49.476;11.010;2023-06-22T14:26:38;37.50;52.30
16999;DHT22;10211;49.476;11.010;2023-06-22T14:29:05;37.40;53.70
16999;DHT22;10211;49.476;11.010;2023-06-22T14:31:31;37.30;52.50
16999;DHT22;10211;49.476;11.010;2023-06-22T14:33:59;37.30;53.00
16999;DHT22;10211;49.476;11.010;2023-06-22T14:36:25;37.30;53.00
16999;DHT22;10211;49.476;11.010;2023-06-22T14:38:53;37.30;53.90
16999;DHT22;10211;49.476;11.010;2023-06-22T14:41:20;37.30;52.80
16999;DHT22;10211;49.476;11.010;2023-06-22T14:43:47;37.20;52.10
16999;DHT22;10211;49.476;11.010;2023-06-22T14:46:15;37.10;53.00
16999;DHT22;10211;49.476;11.010;2023-06-22T14:48:42;37.00;53.00
16999;DHT22;10211;49.476;11.010;2023-06-22T14:51:09;36.80;52.90
16999;DHT22;10211;49.476;11.010;2023-06-22T14:53:36;36.70;53.50
16999;DHT22;10211;49.476;11.010;2023-06-22T14:56:04;36.70;52.70
16999;DHT22;10211;49.476;11.010;2023-06-22T14:58:31;36.80;52.10
16999;DHT22;10211;49.476;11.010;2023-06-22T15:00:59;36.60;52.10
16999;DHT22;10211;49.476;11.010;2023-06-22T15:03:26;36.50;52.40
16999;DHT22;10211;49.476;11.010;2023-06-22T15:05:54;36.50;52.40
16999;DHT22;10211;49.476;11.010;2023-06-22T15:08:21;36.40;52.30
16999;DHT22;10211;49.476;11.010;2023-06-22T15:10:48;36.30;52.80
16999;DHT22;10211;49.476;11.010;2023-06-22T15:13:16;36.20;53.90
16999;DHT22;10211;49.476;11.010;2023-06-22T15:15:43;36.20;53.20